sensor_id;sensor_type;location;lat;lon;timestamp;temperature;humidity
652;DHT22;310;48.490;9.200;2023-05-27T00:01:46;19.10;38.20
652;DHT22;310;48.490;9.200;2023-05-27T00:04:12;19.20;37.30
652;DHT22;310;48.490;9.200;2023-05-27T00:06:38;19.00;38.60
652;DHT22;310;48.490;9.200;2023-05-27T00:09:03;19.00;38.90
652;DHT22;310;48.490;9.200;2023-05-27T00:11:29;18.80;39.00
652;DHT22;310;48.490;9.200;2023-05-27T00:13:55;18.80;38.70
652;DHT22;310;48.490;9.200;2023-05-27T00:16:20;18.80;39.00
652;DHT22;310;48.490;9.200;2023-05-27T00:18:47;18.70;39.40
652;DHT22;310;48.490;9.200;2023-05-27T00:21:13;18.80;38.90
652;DHT22;310;48.490;9.200;2023-05-27T00:23:39;18.90;38.60
652;DHT22;310;48.490;9.200;2023-05-27T00:26:05;18.90;37.80
652;DHT22;310;48.490;9.200;2023-05-27T00:28:30;18.80;38.60
652;DHT22;310;48.490;9.200;2023-05-27T00:30:57;18.80;38.70
652;DHT22;310;48.490;9.200;2023-05-27T00:33:23;18.80;38.00
652;DHT22;310;48.490;9.200;2023-05-27T00:35:49;18.70;38.60
652;DHT22;310;48.490;9.200;2023-05-27T00:38:14;18.60;40.20
652;DHT22;310;48.490;9.200;2023-05-27T00:40:40;18.70;38.70
652;DHT22;310;48.490;9.200;2023-05-27T00:43:06;18.70;39.30
652;DHT22;310;48.490;9.200;2023-05-27T00:45:32;18.70;38.90
652;DHT22;310;48.490;9.200;2023-05-27T00:47:58;18.70;39.00
652;DHT22;310;48.490;9.200;2023-05-27T00:50:27;18.60;38.60
652;DHT22;310;48.490;9.200;2023-05-27T00:52:53;18.50;39.00
652;DHT22;310;48.490;9.200;2023-05-27T00:55:21;18.60;37.80
652;DHT22;310;48.490;9.200;2023-05-27T00:57:47;18.60;38.30
652;DHT22;310;48.490;9.200;2023-05-27T01:00:13;18.50;39.30
652;DHT22;310;48.490;9.200;2023-05-27T01:02:40;18.50;38.60
652;DHT22;310;48.490;9.200;2023-05-27T01:05:08;18.50;39.10
652;DHT22;310;48.490;9.200;2023-05-27T01:07:47;18.30;39.40
652;DHT22;310;48.490;9.200;2023-05-27T01:10:26;18.40;38.90
652;DHT22;310;48.490;9.200;2023-05-27T01:13:06;18.40;39.20
652;DHT22;310;48.490;9.200;2023-05-27T01:15:35;18.40;37.70
652;DHT22;310;48.490;9.200;2023-05-27T01:18:02;18.50;37.40
652;DHT22;310;48.490;9.200;2023-05-27T01:20:32;18.50;36.50
652;DHT22;310;48.490;9.200;2023-05-27T01:22:58;18.50;35.20
652;DHT22;310;48.490;9.200;2023-05-27T01:25:24;18.50;34.70
652;DHT22;310;48.490;9.200;2023-05-27T01:27:50;18.50;35.60
652;DHT22;310;48.490;9.200;2023-05-27T01:30:18;18.40;35.30
652;DHT22;310;48.490;9.200;2023-05-27T01:32:49;18.40;34.30
652;DHT22;310;48.490;9.200;2023-05-27T01:35:43;18.40;35.00
652;DHT22;310;48.490;9.200;2023-05-27T01:38:12;18.50;34.20
652;DHT22;310;48.490;9.200;2023-05-27T01:40:40;18.40;35.40
652;DHT22;310;48.490;9.200;2023-05-27T01:43:07;18.30;33.90
652;DHT22;310;48.490;9.200;2023-05-27T01:45:33;18.40;33.60
652;DHT22;310;48.490;9.200;2023-05-27T01:48:00;18.40;33.00
652;DHT22;310;48.490;9.200;2023-05-27T01:50:25;18.30;35.10
652;DHT22;310;48.490;9.200;2023-05-27T01:52:51;18.40;33.90
652;DHT22;310;48.490;9.200;2023-05-27T01:55:17;18.20;36.00
652;DHT22;310;48.490;9.200;2023-05-27T01:57:43;17.80;37.40
652;DHT22;310;48.490;9.200;2023-05-27T02:00:09;17.70;37.20
652;DHT22;310;48.490;9.200;2023-05-27T02:02:35;17.70;38.10
652;DHT22;310;48.490;9.200;2023-05-27T02:05:02;17.80;37.70
652;DHT22;310;48.490;9.200;2023-05-27T02:07:27;17.80;38.10
652;DHT22;310;48.490;9.200;2023-05-27T02:09:53;17.60;38.20
652;DHT22;310;48.490;9.200;2023-05-27T02:12:19;17.50;38.80
652;DHT22;310;48.490;9.200;2023-05-27T02:14:45;17.50;37.60
652;DHT22;310;48.490;9.200;2023-05-27T02:17:11;17.40;38.00
652;DHT22;310;48.490;9.200;2023-05-27T02:19:40;17.40;38.70
652;DHT22;310;48.490;9.200;2023-05-27T02:22:06;17.30;39.10
652;DHT22;310;48.490;9.200;2023-05-27T02:24:31;17.20;39.40
652;DHT22;310;48.490;9.200;2023-05-27T02:26:58;17.20;39.80
652;DHT22;310;48.490;9.200;2023-05-27T02:29:23;17.20;39.10
652;DHT22;310;48.490;9.200;2023-05-27T02:31:49;17.20;39.00
652;DHT22;310;48.490;9.200;2023-05-27T02:34:14;17.00;39.10
652;DHT22;310;48.490;9.200;2023-05-27T02:36:40;17.10;39.70
652;DHT22;310;48.490;9.200;2023-05-27T02:39:06;17.00;39.80
652;DHT22;310;48.490;9.200;2023-05-27T02:41:31;16.90;40.80
652;DHT22;310;48.490;9.200;2023-05-27T02:43:57;16.90;40.80
652;DHT22;310;48.490;9.200;2023-05-27T02:46:22;16.90;40.20
652;DHT22;310;48.490;9.200;2023-05-27T02:48:48;16.90;41.00
652;DHT22;310;48.490;9.200;2023-05-27T02:51:14;16.80;39.20
652;DHT22;310;48.490;9.200;2023-05-27T02:53:39;16.80;39.80
652;DHT22;310;48.490;9.200;2023-05-27T02:56:05;16.80;40.00
652;DHT22;310;48.490;9.200;2023-05-27T02:58:31;16.80;39.50
652;DHT22;310;48.490;9.200;2023-05-27T03:00:56;16.70;40.60
652;DHT22;310;48.490;9.200;2023-05-27T03:03:22;16.60;40.80
652;DHT22;310;48.490;9.200;2023-05-27T03:05:49;16.70;39.40
652;DHT22;310;48.490;9.200;2023-05-27T03:08:15;16.70;39.80
652;DHT22;310;48.490;9.200;2023-05-27T03:10:41;16.70;40.60
652;DHT22;310;48.490;9.200;2023-05-27T03:13:06;16.70;40.30
652;DHT22;310;48.490;9.200;2023-05-27T03:15:32;16.80;40.20
652;DHT22;310;48.490;9.200;2023-05-27T03:17:58;16.70;39.90
652;DHT22;310;48.490;9.200;2023-05-27T03:20:24;16.50;40.40
652;DHT22;310;48.490;9.200;2023-05-27T03:22:49;16.60;40.10
652;DHT22;310;48.490;9.200;2023-05-27T03:25:15;16.50;41.00
652;DHT22;310;48.490;9.200;2023-05-27T03:27:41;16.50;40.50
652;DHT22;310;48.490;9.200;2023-05-27T03:30:07;16.60;40.10
652;DHT22;310;48.490;9.200;2023-05-27T03:32:33;16.50;39.80
652;DHT22;310;48.490;9.200;2023-05-27T03:34:59;16.50;40.10
652;DHT22;310;48.490;9.200;2023-05-27T03:37:25;16.40;40.20
652;DHT22;310;48.490;9.200;2023-05-27T03:39:50;16.50;40.20
652;DHT22;310;48.490;9.200;2023-05-27T03:42:17;16.40;40.70
652;DHT22;310;48.490;9.200;2023-05-27T03:44:42;16.40;40.60
652;DHT22;310;48.490;9.200;2023-05-27T03:47:08;16.30;39.60
652;DHT22;310;48.490;9.200;2023-05-27T03:49:34;16.20;40.20
652;DHT22;310;48.490;9.200;2023-05-27T03:51:59;16.30;41.10
652;DHT22;310;48.490;9.200;2023-05-27T03:54:25;16.30;40.80
652;DHT22;310;48.490;9.200;2023-05-27T03:56:50;16.20;42.70
652;DHT22;310;48.490;9.200;2023-05-27T03:59:16;16.30;41.00
652;DHT22;310;48.490;9.200;2023-05-27T04:01:44;16.50;40.30
652;DHT22;310;48.490;9.200;2023-05-27T04:04:10;16.40;41.10
652;DHT22;310;48.490;9.200;2023-05-27T04:06:35;16.40;41.10
652;DHT22;310;48.490;9.200;2023-05-27T04:09:01;16.40;41.20
652;DHT22;310;48.490;9.200;2023-05-27T04:11:29;16.30;41.70
652;DHT22;310;48.490;9.200;2023-05-27T04:13:55;16.40;41.10
652;DHT22;310;48.490;9.200;2023-05-27T04:16:21;16.40;40.60
652;DHT22;310;48.490;9.200;2023-05-27T04:18:47;16.40;40.60
652;DHT22;310;48.490;9.200;2023-05-27T04:21:16;16.30;40.30
652;DHT22;310;48.490;9.200;2023-05-27T04:23:42;16.40;41.30
652;DHT22;310;48.490;9.200;2023-05-27T04:26:07;16.30;40.50
652;DHT22;310;48.490;9.200;2023-05-27T04:28:33;16.40;40.90
652;DHT22;310;48.490;9.200;2023-05-27T04:31:01;16.30;41.50
652;DHT22;310;48.490;9.200;2023-05-27T04:33:26;16.30;41.60
652;DHT22;310;48.490;9.200;2023-05-27T04:35:52;16.40;40.90
652;DHT22;310;48.490;9.200;2023-05-27T04:38:19;16.50;41.00
652;DHT22;310;48.490;9.200;2023-05-27T04:40:47;16.40;41.70
652;DHT22;310;48.490;9.200;2023-05-27T04:43:21;16.50;40.90
652;DHT22;310;48.490;9.200;2023-05-27T04:45:47;16.40;42.70
652;DHT22;310;48.490;9.200;2023-05-27T04:48:13;16.60;41.20
652;DHT22;310;48.490;9.200;2023-05-27T04:50:39;16.60;40.20
652;DHT22;310;48.490;9.200;2023-05-27T04:53:06;16.60;41.30
652;DHT22;310;48.490;9.200;2023-05-27T04:55:32;16.70;40.80
652;DHT22;310;48.490;9.200;2023-05-27T04:57:58;16.70;41.60
652;DHT22;310;48.490;9.200;2023-05-27T05:00:24;16.80;40.60
652;DHT22;310;48.490;9.200;2023-05-27T05:03:02;16.90;40.20
652;DHT22;310;48.490;9.200;2023-05-27T05:05:28;17.10;38.90
652;DHT22;310;48.490;9.200;2023-05-27T05:07:53;17.10;39.50
652;DHT22;310;48.490;9.200;2023-05-27T05:10:19;17.10;39.60
652;DHT22;310;48.490;9.200;2023-05-27T05:12:45;17.20;39.00
652;DHT22;310;48.490;9.200;2023-05-27T05:15:11;17.20;38.60
652;DHT22;310;48.490;9.200;2023-05-27T05:17:36;17.30;38.50
652;DHT22;310;48.490;9.200;2023-05-27T05:20:02;17.50;38.40
652;DHT22;310;48.490;9.200;2023-05-27T05:22:29;17.50;39.30
652;DHT22;310;48.490;9.200;2023-05-27T05:24:54;17.70;38.20
652;DHT22;310;48.490;9.200;2023-05-27T05:27:20;17.70;36.20
652;DHT22;310;48.490;9.200;2023-05-27T05:29:45;17.80;35.50
652;DHT22;310;48.490;9.200;2023-05-27T05:32:11;17.80;34.40
652;DHT22;310;48.490;9.200;2023-05-27T05:34:38;17.90;34.80
652;DHT22;310;48.490;9.200;2023-05-27T05:37:04;18.00;32.80
652;DHT22;310;48.490;9.200;2023-05-27T05:39:30;17.80;31.20
652;DHT22;310;48.490;9.200;2023-05-27T05:41:56;18.00;32.30
652;DHT22;310;48.490;9.200;2023-05-27T05:44:23;18.00;32.60
652;DHT22;310;48.490;9.200;2023-05-27T05:46:49;18.20;31.10
652;DHT22;310;48.490;9.200;2023-05-27T05:49:15;18.30;33.20
652;DHT22;310;48.490;9.200;2023-05-27T05:51:40;18.40;32.30
652;DHT22;310;48.490;9.200;2023-05-27T05:54:06;18.50;33.00
652;DHT22;310;48.490;9.200;2023-05-27T05:56:32;18.50;30.40
652;DHT22;310;48.490;9.200;2023-05-27T05:58:58;18.60;30.90
652;DHT22;310;48.490;9.200;2023-05-27T06:01:25;18.50;31.60
652;DHT22;310;48.490;9.200;2023-05-27T06:03:55;18.30;33.60
652;DHT22;310;48.490;9.200;2023-05-27T06:06:22;18.70;32.50
652;DHT22;310;48.490;9.200;2023-05-27T06:08:47;18.70;32.60
652;DHT22;310;48.490;9.200;2023-05-27T06:11:13;18.20;29.80
652;DHT22;310;48.490;9.200;2023-05-27T06:13:39;17.60;31.40
652;DHT22;310;48.490;9.200;2023-05-27T06:16:05;17.50;34.00
652;DHT22;310;48.490;9.200;2023-05-27T06:18:31;17.90;31.90
652;DHT22;310;48.490;9.200;2023-05-27T06:20:57;18.40;33.90
652;DHT22;310;48.490;9.200;2023-05-27T06:23:22;18.70;31.20
652;DHT22;310;48.490;9.200;2023-05-27T06:25:48;18.90;32.10
652;DHT22;310;48.490;9.200;2023-05-27T06:28:13;18.90;32.00
652;DHT22;310;48.490;9.200;2023-05-27T06:30:39;18.80;31.40
652;DHT22;310;48.490;9.200;2023-05-27T06:33:05;18.90;31.30
652;DHT22;310;48.490;9.200;2023-05-27T06:35:31;19.00;29.80
652;DHT22;310;48.490;9.200;2023-05-27T06:37:58;19.20;29.90
652;DHT22;310;48.490;9.200;2023-05-27T06:40:24;19.30;30.60
652;DHT22;310;48.490;9.200;2023-05-27T06:42:50;19.30;29.80
652;DHT22;310;48.490;9.200;2023-05-27T06:45:15;19.30;30.40
652;DHT22;310;48.490;9.200;2023-05-27T06:47:41;19.40;29.30
652;DHT22;310;48.490;9.200;2023-05-27T06:50:07;18.80;29.90
652;DHT22;310;48.490;9.200;2023-05-27T06:52:33;19.10;30.80
652;DHT22;310;48.490;9.200;2023-05-27T06:54:58;18.80;30.20
652;DHT22;310;48.490;9.200;2023-05-27T06:57:24;19.10;31.80
652;DHT22;310;48.490;9.200;2023-05-27T06:59:49;19.40;29.60
652;DHT22;310;48.490;9.200;2023-05-27T07:02:15;19.20;30.40
652;DHT22;310;48.490;9.200;2023-05-27T07:04:41;19.20;30.20
652;DHT22;310;48.490;9.200;2023-05-27T07:07:07;19.60;30.80
652;DHT22;310;48.490;9.200;2023-05-27T07:09:32;19.60;29.90
652;DHT22;310;48.490;9.200;2023-05-27T07:11:59;19.70;29.20
652;DHT22;310;48.490;9.200;2023-05-27T07:14:25;19.60;30.00
652;DHT22;310;48.490;9.200;2023-05-27T07:16:51;19.70;29.60
652;DHT22;310;48.490;9.200;2023-05-27T07:19:17;19.80;29.60
652;DHT22;310;48.490;9.200;2023-05-27T07:21:43;19.80;29.40
652;DHT22;310;48.490;9.200;2023-05-27T07:24:08;19.80;30.20
652;DHT22;310;48.490;9.200;2023-05-27T07:26:34;20.10;29.50
652;DHT22;310;48.490;9.200;2023-05-27T07:29:00;20.10;29.70
652;DHT22;310;48.490;9.200;2023-05-27T07:31:27;20.30;29.30
652;DHT22;310;48.490;9.200;2023-05-27T07:33:53;20.30;28.70
652;DHT22;310;48.490;9.200;2023-05-27T07:36:19;20.40;29.60
652;DHT22;310;48.490;9.200;2023-05-27T07:38:44;20.80;28.80
652;DHT22;310;48.490;9.200;2023-05-27T07:41:10;21.00;27.40
652;DHT22;310;48.490;9.200;2023-05-27T07:43:36;21.10;28.30
652;DHT22;310;48.490;9.200;2023-05-27T07:46:02;21.10;28.20
652;DHT22;310;48.490;9.200;2023-05-27T07:48:28;21.30;28.60
652;DHT22;310;48.490;9.200;2023-05-27T07:50:54;21.30;28.50
652;DHT22;310;48.490;9.200;2023-05-27T07:53:20;21.40;27.00
652;DHT22;310;48.490;9.200;2023-05-27T07:55:46;21.50;27.10
652;DHT22;310;48.490;9.200;2023-05-27T07:58:12;21.50;27.80
652;DHT22;310;48.490;9.200;2023-05-27T08:00:37;21.40;27.70
652;DHT22;310;48.490;9.200;2023-05-27T08:03:03;21.30;27.60
652;DHT22;310;48.490;9.200;2023-05-27T08:05:28;21.40;28.50
652;DHT22;310;48.490;9.200;2023-05-27T08:07:54;21.60;27.90
652;DHT22;310;48.490;9.200;2023-05-27T08:10:20;21.30;28.00
652;DHT22;310;48.490;9.200;2023-05-27T08:12:46;21.50;27.90
652;DHT22;310;48.490;9.200;2023-05-27T08:15:11;21.30;27.60
652;DHT22;310;48.490;9.200;2023-05-27T08:17:37;21.30;28.90
652;DHT22;310;48.490;9.200;2023-05-27T08:20:03;21.20;28.10
652;DHT22;310;48.490;9.200;2023-05-27T08:22:29;21.40;27.40
652;DHT22;310;48.490;9.200;2023-05-27T08:24:55;21.70;27.80
652;DHT22;310;48.490;9.200;2023-05-27T08:27:41;22.00;27.40
652;DHT22;310;48.490;9.200;2023-05-27T08:30:06;22.10;27.50
652;DHT22;310;48.490;9.200;2023-05-27T08:32:33;20.40;25.60
652;DHT22;310;48.490;9.200;2023-05-27T08:34:59;21.70;29.10
652;DHT22;310;48.490;9.200;2023-05-27T08:37:25;22.10;27.80
652;DHT22;310;48.490;9.200;2023-05-27T08:39:51;22.30;27.90
652;DHT22;310;48.490;9.200;2023-05-27T08:42:16;22.30;27.10
652;DHT22;310;48.490;9.200;2023-05-27T08:44:42;22.00;27.20
652;DHT22;310;48.490;9.200;2023-05-27T08:47:08;22.00;28.20
652;DHT22;310;48.490;9.200;2023-05-27T08:49:34;22.30;27.30
652;DHT22;310;48.490;9.200;2023-05-27T08:52:01;22.40;27.70
652;DHT22;310;48.490;9.200;2023-05-27T08:54:28;22.50;27.00
652;DHT22;310;48.490;9.200;2023-05-27T08:56:55;22.80;27.10
652;DHT22;310;48.490;9.200;2023-05-27T08:59:22;22.80;26.60
652;DHT22;310;48.490;9.200;2023-05-27T09:01:49;23.00;26.40
652;DHT22;310;48.490;9.200;2023-05-27T09:04:15;23.00;26.20
652;DHT22;310;48.490;9.200;2023-05-27T09:06:41;23.00;26.80
652;DHT22;310;48.490;9.200;2023-05-27T09:09:07;23.20;26.30
652;DHT22;310;48.490;9.200;2023-05-27T09:11:39;23.30;25.30
652;DHT22;310;48.490;9.200;2023-05-27T09:14:05;23.30;25.70
652;DHT22;310;48.490;9.200;2023-05-27T09:16:31;22.20;26.80
652;DHT22;310;48.490;9.200;2023-05-27T09:18:56;21.90;27.30
652;DHT22;310;48.490;9.200;2023-05-27T09:21:24;22.30;28.40
652;DHT22;310;48.490;9.200;2023-05-27T09:23:55;23.10;26.00
652;DHT22;310;48.490;9.200;2023-05-27T09:26:22;23.70;27.30
652;DHT22;310;48.490;9.200;2023-05-27T09:28:48;23.90;25.40
652;DHT22;310;48.490;9.200;2023-05-27T09:31:14;24.10;24.80
652;DHT22;310;48.490;9.200;2023-05-27T09:33:40;24.20;24.80
652;DHT22;310;48.490;9.200;2023-05-27T09:36:07;23.90;24.90
652;DHT22;310;48.490;9.200;2023-05-27T09:38:35;22.70;26.10
652;DHT22;310;48.490;9.200;2023-05-27T09:41:04;22.30;27.80
652;DHT22;310;48.490;9.200;2023-05-27T09:43:30;23.10;25.80
652;DHT22;310;48.490;9.200;2023-05-27T09:45:59;23.20;25.60
652;DHT22;310;48.490;9.200;2023-05-27T09:48:28;23.70;25.80
652;DHT22;310;48.490;9.200;2023-05-27T09:50:55;24.20;25.60
652;DHT22;310;48.490;9.200;2023-05-27T09:53:24;24.50;24.80
652;DHT22;310;48.490;9.200;2023-05-27T09:55:50;24.60;23.80
652;DHT22;310;48.490;9.200;2023-05-27T09:58:17;24.80;25.20
652;DHT22;310;48.490;9.200;2023-05-27T10:00:45;25.30;24.30
652;DHT22;310;48.490;9.200;2023-05-27T10:03:12;25.70;22.60
652;DHT22;310;48.490;9.200;2023-05-27T10:05:51;25.70;21.40
652;DHT22;310;48.490;9.200;2023-05-27T10:08:21;25.70;23.20
652;DHT22;310;48.490;9.200;2023-05-27T10:10:47;25.80;23.00
652;DHT22;310;48.490;9.200;2023-05-27T10:13:14;25.60;21.60
652;DHT22;310;48.490;9.200;2023-05-27T10:15:46;25.50;22.70
652;DHT22;310;48.490;9.200;2023-05-27T10:18:23;25.70;22.50
652;DHT22;310;48.490;9.200;2023-05-27T10:20:49;25.50;21.00
652;DHT22;310;48.490;9.200;2023-05-27T10:23:20;25.20;22.30
652;DHT22;310;48.490;9.200;2023-05-27T10:25:50;25.40;22.20
652;DHT22;310;48.490;9.200;2023-05-27T10:28:36;25.90;22.90
652;DHT22;310;48.490;9.200;2023-05-27T10:33:31;26.70;21.40
652;DHT22;310;48.490;9.200;2023-05-27T10:36:06;27.10;18.50
652;DHT22;310;48.490;9.200;2023-05-27T10:38:32;27.20;20.00
652;DHT22;310;48.490;9.200;2023-05-27T10:41:00;27.10;19.50
652;DHT22;310;48.490;9.200;2023-05-27T10:43:29;27.10;20.20
652;DHT22;310;48.490;9.200;2023-05-27T10:46:07;27.10;18.60
652;DHT22;310;48.490;9.200;2023-05-27T10:48:33;26.50;18.40
652;DHT22;310;48.490;9.200;2023-05-27T10:50:59;26.60;18.60
652;DHT22;310;48.490;9.200;2023-05-27T10:53:28;26.70;19.40
652;DHT22;310;48.490;9.200;2023-05-27T10:55:58;27.10;19.40
652;DHT22;310;48.490;9.200;2023-05-27T10:58:24;27.30;20.40
652;DHT22;310;48.490;9.200;2023-05-27T11:00:51;27.30;19.60
652;DHT22;310;48.490;9.200;2023-05-27T11:03:21;27.10;19.90
652;DHT22;310;48.490;9.200;2023-05-27T11:06:06;27.60;20.30
652;DHT22;310;48.490;9.200;2023-05-27T11:08:34;27.80;18.90
652;DHT22;310;48.490;9.200;2023-05-27T11:11:10;28.20;18.20
652;DHT22;310;48.490;9.200;2023-05-27T11:13:38;28.00;17.50
652;DHT22;310;48.490;9.200;2023-05-27T11:16:05;28.20;17.60
652;DHT22;310;48.490;9.200;2023-05-27T11:18:44;28.40;18.10
652;DHT22;310;48.490;9.200;2023-05-27T11:21:12;28.80;16.70
652;DHT22;310;48.490;9.200;2023-05-27T11:23:46;29.00;16.60
652;DHT22;310;48.490;9.200;2023-05-27T11:26:20;29.20;14.80
652;DHT22;310;48.490;9.200;2023-05-27T11:28:50;29.60;15.20
652;DHT22;310;48.490;9.200;2023-05-27T11:31:22;30.40;14.90
652;DHT22;310;48.490;9.200;2023-05-27T11:33:51;31.70;13.20
652;DHT22;310;48.490;9.200;2023-05-27T11:36:18;32.20;14.10
652;DHT22;310;48.490;9.200;2023-05-27T11:38:49;32.80;12.90
652;DHT22;310;48.490;9.200;2023-05-27T11:41:15;33.00;13.00
652;DHT22;310;48.490;9.200;2023-05-27T11:43:48;32.90;12.00
652;DHT22;310;48.490;9.200;2023-05-27T11:46:14;32.50;11.50
652;DHT22;310;48.490;9.200;2023-05-27T11:48:40;32.30;11.30
652;DHT22;310;48.490;9.200;2023-05-27T11:51:05;32.20;11.20
652;DHT22;310;48.490;9.200;2023-05-27T11:53:31;31.90;12.70
652;DHT22;310;48.490;9.200;2023-05-27T11:55:57;32.80;11.90
652;DHT22;310;48.490;9.200;2023-05-27T11:58:22;32.70;11.50
652;DHT22;310;48.490;9.200;2023-05-27T12:00:49;33.60;10.00
652;DHT22;310;48.490;9.200;2023-05-27T12:03:14;34.50;11.30
652;DHT22;310;48.490;9.200;2023-05-27T12:05:40;34.60;10.10
652;DHT22;310;48.490;9.200;2023-05-27T12:08:06;35.20;8.90
652;DHT22;310;48.490;9.200;2023-05-27T12:10:31;35.70;7.20
652;DHT22;310;48.490;9.200;2023-05-27T12:13:04;36.10;8.20
652;DHT22;310;48.490;9.200;2023-05-27T12:15:30;34.90;9.40
652;DHT22;310;48.490;9.200;2023-05-27T12:17:56;34.40;8.20
652;DHT22;310;48.490;9.200;2023-05-27T12:20:22;35.10;8.60
652;DHT22;310;48.490;9.200;2023-05-27T12:22:55;34.90;8.50
652;DHT22;310;48.490;9.200;2023-05-27T12:25:21;35.40;9.40
652;DHT22;310;48.490;9.200;2023-05-27T12:27:46;36.00;7.60
652;DHT22;310;48.490;9.200;2023-05-27T12:30:12;35.70;6.40
652;DHT22;310;48.490;9.200;2023-05-27T12:32:39;35.60;7.20
652;DHT22;310;48.490;9.200;2023-05-27T12:35:05;36.10;8.40
652;DHT22;310;48.490;9.200;2023-05-27T12:37:31;36.00;7.10
652;DHT22;310;48.490;9.200;2023-05-27T12:39:57;36.30;7.60
652;DHT22;310;48.490;9.200;2023-05-27T12:42:22;36.30;6.90
652;DHT22;310;48.490;9.200;2023-05-27T12:44:48;36.30;7.80
652;DHT22;310;48.490;9.200;2023-05-27T12:47:13;36.20;6.70
652;DHT22;310;48.490;9.200;2023-05-27T12:49:39;35.40;9.00
652;DHT22;310;48.490;9.200;2023-05-27T12:52:05;35.00;9.20
652;DHT22;310;48.490;9.200;2023-05-27T12:54:31;34.00;9.50
652;DHT22;310;48.490;9.200;2023-05-27T12:56:57;33.50;10.60
652;DHT22;310;48.490;9.200;2023-05-27T12:59:22;33.00;10.60
652;DHT22;310;48.490;9.200;2023-05-27T13:01:48;32.70;11.50
652;DHT22;310;48.490;9.200;2023-05-27T13:04:13;32.10;11.60
652;DHT22;310;48.490;9.200;2023-05-27T13:06:39;31.80;12.10
652;DHT22;310;48.490;9.200;2023-05-27T13:09:05;31.50;12.60
652;DHT22;310;48.490;9.200;2023-05-27T13:11:31;31.50;12.90
652;DHT22;310;48.490;9.200;2023-05-27T13:13:56;31.50;12.30
652;DHT22;310;48.490;9.200;2023-05-27T13:16:22;31.10;11.70
652;DHT22;310;48.490;9.200;2023-05-27T13:18:47;31.00;13.00
652;DHT22;310;48.490;9.200;2023-05-27T13:21:13;30.50;13.00
652;DHT22;310;48.490;9.200;2023-05-27T13:23:39;30.40;13.30
652;DHT22;310;48.490;9.200;2023-05-27T13:26:05;30.70;11.80
652;DHT22;310;48.490;9.200;2023-05-27T13:28:31;30.70;13.30
652;DHT22;310;48.490;9.200;2023-05-27T13:30:57;30.80;13.70
652;DHT22;310;48.490;9.200;2023-05-27T13:33:22;30.60;13.60
652;DHT22;310;48.490;9.200;2023-05-27T13:35:48;30.80;13.40
652;DHT22;310;48.490;9.200;2023-05-27T13:38:14;30.60;13.40
652;DHT22;310;48.490;9.200;2023-05-27T13:40:41;30.20;13.90
652;DHT22;310;48.490;9.200;2023-05-27T13:43:07;30.50;13.10
652;DHT22;310;48.490;9.200;2023-05-27T13:45:33;30.50;12.60
652;DHT22;310;48.490;9.200;2023-05-27T13:47:58;30.50;13.50
652;DHT22;310;48.490;9.200;2023-05-27T13:50:24;30.80;12.70
652;DHT22;310;48.490;9.200;2023-05-27T13:52:50;30.70;14.20
652;DHT22;310;48.490;9.200;2023-05-27T13:55:15;30.30;13.50
652;DHT22;310;48.490;9.200;2023-05-27T13:57:41;30.30;12.80
652;DHT22;310;48.490;9.200;2023-05-27T14:00:09;30.30;12.90
652;DHT22;310;48.490;9.200;2023-05-27T14:02:35;29.10;13.90
652;DHT22;310;48.490;9.200;2023-05-27T14:05:01;29.60;14.20
652;DHT22;310;48.490;9.200;2023-05-27T14:07:28;30.20;12.20
652;DHT22;310;48.490;9.200;2023-05-27T14:09:54;30.30;13.10
652;DHT22;310;48.490;9.200;2023-05-27T14:12:20;31.00;12.10
652;DHT22;310;48.490;9.200;2023-05-27T14:14:45;31.90;12.80
652;DHT22;310;48.490;9.200;2023-05-27T14:17:11;32.60;9.50
652;DHT22;310;48.490;9.200;2023-05-27T14:19:37;31.00;11.50
652;DHT22;310;48.490;9.200;2023-05-27T14:22:03;31.90;12.20
652;DHT22;310;48.490;9.200;2023-05-27T14:24:28;32.20;10.70
652;DHT22;310;48.490;9.200;2023-05-27T14:26:55;32.20;9.60
652;DHT22;310;48.490;9.200;2023-05-27T14:29:21;31.90;12.50
652;DHT22;310;48.490;9.200;2023-05-27T14:31:46;32.10;11.60
652;DHT22;310;48.490;9.200;2023-05-27T14:34:12;31.80;10.60
652;DHT22;310;48.490;9.200;2023-05-27T14:36:38;31.30;11.20
652;DHT22;310;48.490;9.200;2023-05-27T14:39:03;31.10;11.70
652;DHT22;310;48.490;9.200;2023-05-27T14:41:31;30.50;11.70
652;DHT22;310;48.490;9.200;2023-05-27T14:43:57;30.50;12.10
652;DHT22;310;48.490;9.200;2023-05-27T14:46:23;30.00;12.40
652;DHT22;310;48.490;9.200;2023-05-27T14:48:48;30.40;13.40
652;DHT22;310;48.490;9.200;2023-05-27T14:51:14;30.40;13.00
652;DHT22;310;48.490;9.200;2023-05-27T14:53:40;30.70;11.80
652;DHT22;310;48.490;9.200;2023-05-27T14:56:06;30.60;11.20
652;DHT22;310;48.490;9.200;2023-05-27T14:58:31;30.40;12.80
652;DHT22;310;48.490;9.200;2023-05-27T15:00:57;30.50;11.70
652;DHT22;310;48.490;9.200;2023-05-27T15:03:23;30.40;11.20
652;DHT22;310;48.490;9.200;2023-05-27T15:05:48;30.40;12.70
652;DHT22;310;48.490;9.200;2023-05-27T15:08:14;30.50;11.70
652;DHT22;310;48.490;9.200;2023-05-27T15:10:43;30.40;11.70
652;DHT22;310;48.490;9.200;2023-05-27T15:13:09;30.40;11.60
652;DHT22;310;48.490;9.200;2023-05-27T15:15:36;29.80;11.30
652;DHT22;310;48.490;9.200;2023-05-27T15:18:05;29.60;12.40
652;DHT22;310;48.490;9.200;2023-05-27T15:20:31;29.70;12.40
652;DHT22;310;48.490;9.200;2023-05-27T15:22:57;29.80;12.00
652;DHT22;310;48.490;9.200;2023-05-27T15:25:22;29.90;11.70
652;DHT22;310;48.490;9.200;2023-05-27T15:27:49;30.20;12.10
652;DHT22;310;48.490;9.200;2023-05-27T15:30:14;30.30;12.30
652;DHT22;310;48.490;9.200;2023-05-27T15:32:40;30.00;11.80
652;DHT22;310;48.490;9.200;2023-05-27T15:35:06;29.80;11.80
652;DHT22;310;48.490;9.200;2023-05-27T15:37:32;29.90;12.60
652;DHT22;310;48.490;9.200;2023-05-27T15:39:59;29.70;11.50
652;DHT22;310;48.490;9.200;2023-05-27T15:42:25;30.00;11.50
652;DHT22;310;48.490;9.200;2023-05-27T15:44:51;30.10;12.90
652;DHT22;310;48.490;9.200;2023-05-27T15:47:17;30.20;12.40
652;DHT22;310;48.490;9.200;2023-05-27T15:49:42;30.10;11.10
652;DHT22;310;48.490;9.200;2023-05-27T15:52:08;30.00;11.50
652;DHT22;310;48.490;9.200;2023-05-27T15:54:37;29.80;11.00
652;DHT22;310;48.490;9.200;2023-05-27T15:57:04;30.00;11.40
652;DHT22;310;48.490;9.200;2023-05-27T15:59:30;29.80;11.30
652;DHT22;310;48.490;9.200;2023-05-27T16:01:56;29.90;12.60
652;DHT22;310;48.490;9.200;2023-05-27T16:04:22;30.00;11.70
652;DHT22;310;48.490;9.200;2023-05-27T16:06:47;29.90;12.60
652;DHT22;310;48.490;9.200;2023-05-27T16:09:13;29.70;11.30
652;DHT22;310;48.490;9.200;2023-05-27T16:11:38;29.60;12.70
652;DHT22;310;48.490;9.200;2023-05-27T16:14:04;29.30;11.80
652;DHT22;310;48.490;9.200;2023-05-27T16:16:30;29.60;12.70
652;DHT22;310;48.490;9.200;2023-05-27T16:18:55;29.80;12.60
652;DHT22;310;48.490;9.200;2023-05-27T16:21:21;29.60;12.00
652;DHT22;310;48.490;9.200;2023-05-27T16:23:47;29.40;12.00
652;DHT22;310;48.490;9.200;2023-05-27T16:26:12;29.50;12.30
652;DHT22;310;48.490;9.200;2023-05-27T16:28:38;29.40;12.50
652;DHT22;310;48.490;9.200;2023-05-27T16:31:06;29.40;13.10
652;DHT22;310;48.490;9.200;2023-05-27T16:33:32;29.60;12.00